sensor_id;sensor_type;location;lat;lon;timestamp;P1;durP1;ratioP1;P2;durP2;ratioP2
61252;SDS011;47127;47.516;8.596;2024-01-06T00:00:13;13.90;;;7.80;;
61252;SDS011;47127;47.516;8.596;2024-01-06T00:02:41;14.25;;;8.30;;
61252;SDS011;47127;47.516;8.596;2024-01-06T00:05:06;13.82;;;7.97;;
61252;SDS011;47127;47.516;8.596;2024-01-06T00:07:32;14.50;;;8.07;;
61252;SDS011;47127;47.516;8.596;2024-01-06T00:09:57;15.63;;;8.38;;
61252;SDS011;47127;47.516;8.596;2024-01-06T00:12:23;16.25;;;8.50;;
61252;SDS011;47127;47.516;8.596;2024-01-06T00:14:49;14.05;;;8.30;;
61252;SDS011;47127;47.516;8.596;2024-01-06T00:17:15;14.07;;;7.88;;
61252;SDS011;47127;47.516;8.596;2024-01-06T00:19:41;13.18;;;8.10;;
61252;SDS011;47127;47.516;8.596;2024-01-06T00:22:07;13.48;;;7.35;;
61252;SDS011;47127;47.516;8.596;2024-01-06T00:24:33;14.50;;;8.13;;
61252;SDS011;47127;47.516;8.596;2024-01-06T00:26:59;18.10;;;8.68;;
61252;SDS011;47127;47.516;8.596;2024-01-06T00:29:24;14.65;;;8.30;;
61252;SDS011;47127;47.516;8.596;2024-01-06T00:31:50;14.10;;;8.43;;
61252;SDS011;47127;47.516;8.596;2024-01-06T00:34:15;15.32;;;7.97;;
61252;SDS011;47127;47.516;8.596;2024-01-06T00:36:41;14.68;;;8.32;;
61252;SDS011;47127;47.516;8.596;2024-01-06T00:39:07;13.55;;;7.68;;
61252;SDS011;47127;47.516;8.596;2024-01-06T00:41:33;15.13;;;8.85;;
61252;SDS011;47127;47.516;8.596;2024-01-06T00:43:58;14.65;;;8.25;;
61252;SDS011;47127;47.516;8.596;2024-01-06T00:46:24;14.43;;;8.15;;
61252;SDS011;47127;47.516;8.596;2024-01-06T00:48:49;14.73;;;8.27;;
61252;SDS011;47127;47.516;8.596;2024-01-06T00:51:15;14.60;;;8.18;;
61252;SDS011;47127;47.516;8.596;2024-01-06T00:53:40;13.88;;;8.50;;
61252;SDS011;47127;47.516;8.596;2024-01-06T00:56:06;12.50;;;6.80;;
61252;SDS011;47127;47.516;8.596;2024-01-06T00:58:31;12.75;;;7.45;;
61252;SDS011;47127;47.516;8.596;2024-01-06T01:00:57;11.95;;;6.53;;
61252;SDS011;47127;47.516;8.596;2024-01-06T01:03:23;10.45;;;5.82;;
61252;SDS011;47127;47.516;8.596;2024-01-06T01:05:48;10.27;;;5.35;;
61252;SDS011;47127;47.516;8.596;2024-01-06T01:08:14;9.20;;;5.05;;
61252;SDS011;47127;47.516;8.596;2024-01-06T01:10:39;10.90;;;5.10;;
61252;SDS011;47127;47.516;8.596;2024-01-06T01:13:05;10.43;;;5.82;;
61252;SDS011;47127;47.516;8.596;2024-01-06T01:15:31;9.32;;;5.00;;
61252;SDS011;47127;47.516;8.596;2024-01-06T01:17:56;10.13;;;5.28;;
61252;SDS011;47127;47.516;8.596;2024-01-06T01:20:22;9.95;;;5.50;;
61252;SDS011;47127;47.516;8.596;2024-01-06T01:22:47;9.43;;;4.93;;
61252;SDS011;47127;47.516;8.596;2024-01-06T01:25:13;8.07;;;4.32;;
61252;SDS011;47127;47.516;8.596;2024-01-06T01:27:38;7.85;;;4.13;;
61252;SDS011;47127;47.516;8.596;2024-01-06T01:30:04;9.23;;;4.40;;
61252;SDS011;47127;47.516;8.596;2024-01-06T01:32:30;8.68;;;5.22;;
61252;SDS011;47127;47.516;8.596;2024-01-06T01:34:56;9.32;;;5.32;;
61252;SDS011;47127;47.516;8.596;2024-01-06T01:37:21;9.65;;;5.57;;
61252;SDS011;47127;47.516;8.596;2024-01-06T01:39:47;10.60;;;5.35;;
61252;SDS011;47127;47.516;8.596;2024-01-06T01:42:13;8.35;;;4.82;;
61252;SDS011;47127;47.516;8.596;2024-01-06T01:44:38;9.80;;;5.10;;
61252;SDS011;47127;47.516;8.596;2024-01-06T01:47:04;9.23;;;5.22;;
61252;SDS011;47127;47.516;8.596;2024-01-06T01:49:30;10.05;;;5.30;;
61252;SDS011;47127;47.516;8.596;2024-01-06T01:51:57;8.98;;;4.60;;
61252;SDS011;47127;47.516;8.596;2024-01-06T01:54:23;9.55;;;4.88;;
61252;SDS011;47127;47.516;8.596;2024-01-06T01:56:48;7.93;;;4.47;;
61252;SDS011;47127;47.516;8.596;2024-01-06T01:59:14;8.43;;;4.95;;
61252;SDS011;47127;47.516;8.596;2024-01-06T02:01:44;6.68;;;3.28;;
61252;SDS011;47127;47.516;8.596;2024-01-06T02:04:09;8.70;;;3.92;;
61252;SDS011;47127;47.516;8.596;2024-01-06T02:06:35;7.82;;;3.35;;
61252;SDS011;47127;47.516;8.596;2024-01-06T02:09:00;5.70;;;3.28;;
61252;SDS011;47127;47.516;8.596;2024-01-06T02:11:27;5.18;;;2.78;;
61252;SDS011;47127;47.516;8.596;2024-01-06T02:13:52;4.32;;;2.10;;
61252;SDS011;47127;47.516;8.596;2024-01-06T02:16:18;3.72;;;1.95;;
61252;SDS011;47127;47.516;8.596;2024-01-06T02:18:43;4.00;;;1.73;;
61252;SDS011;47127;47.516;8.596;2024-01-06T02:21:09;2.63;;;1.60;;
61252;SDS011;47127;47.516;8.596;2024-01-06T02:23:35;6.97;;;1.60;;
61252;SDS011;47127;47.516;8.596;2024-01-06T02:26:02;3.90;;;1.50;;
61252;SDS011;47127;47.516;8.596;2024-01-06T02:28:27;3.10;;;1.25;;
61252;SDS011;47127;47.516;8.596;2024-01-06T02:30:53;2.65;;;1.35;;
61252;SDS011;47127;47.516;8.596;2024-01-06T02:33:19;2.97;;;1.45;;
61252;SDS011;47127;47.516;8.596;2024-01-06T02:35:48;3.70;;;1.50;;
61252;SDS011;47127;47.516;8.596;2024-01-06T02:38:13;4.72;;;1.58;;
61252;SDS011;47127;47.516;8.596;2024-01-06T02:40:39;3.95;;;1.33;;
61252;SDS011;47127;47.516;8.596;2024-01-06T02:43:04;5.30;;;1.50;;
61252;SDS011;47127;47.516;8.596;2024-01-06T02:45:30;3.15;;;1.20;;
61252;SDS011;47127;47.516;8.596;2024-01-06T02:47:56;3.38;;;1.27;;
61252;SDS011;47127;47.516;8.596;2024-01-06T02:50:21;2.65;;;1.27;;
61252;SDS011;47127;47.516;8.596;2024-01-06T02:52:47;2.25;;;1.02;;
61252;SDS011;47127;47.516;8.596;2024-01-06T02:55:12;3.05;;;1.35;;
61252;SDS011;47127;47.516;8.596;2024-01-06T02:57:38;3.60;;;1.45;;
61252;SDS011;47127;47.516;8.596;2024-01-06T03:00:05;3.38;;;1.45;;
61252;SDS011;47127;47.516;8.596;2024-01-06T03:02:32;4.90;;;1.25;;
61252;SDS011;47127;47.516;8.596;2024-01-06T03:04:58;3.08;;;1.30;;
61252;SDS011;47127;47.516;8.596;2024-01-06T03:07:23;1.98;;;1.17;;
61252;SDS011;47127;47.516;8.596;2024-01-06T03:09:49;1.92;;;0.90;;
61252;SDS011;47127;47.516;8.596;2024-01-06T03:12:14;4.53;;;1.50;;
61252;SDS011;47127;47.516;8.596;2024-01-06T03:14:40;5.38;;;1.10;;
61252;SDS011;47127;47.516;8.596;2024-01-06T03:17:06;4.28;;;1.50;;
61252;SDS011;47127;47.516;8.596;2024-01-06T03:19:31;4.00;;;1.13;;
61252;SDS011;47127;47.516;8.596;2024-01-06T03:21:57;3.33;;;1.35;;
61252;SDS011;47127;47.516;8.596;2024-01-06T03:24:23;3.20;;;1.35;;
61252;SDS011;47127;47.516;8.596;2024-01-06T03:26:50;3.05;;;1.45;;
61252;SDS011;47127;47.516;8.596;2024-01-06T03:29:15;4.13;;;1.38;;
61252;SDS011;47127;47.516;8.596;2024-01-06T03:31:41;2.72;;;1.30;;
61252;SDS011;47127;47.516;8.596;2024-01-06T03:34:08;3.15;;;1.48;;
61252;SDS011;47127;47.516;8.596;2024-01-06T03:36:33;3.03;;;1.30;;
61252;SDS011;47127;47.516;8.596;2024-01-06T03:38:59;3.55;;;1.70;;
61252;SDS011;47127;47.516;8.596;2024-01-06T03:41:25;6.13;;;1.77;;
61252;SDS011;47127;47.516;8.596;2024-01-06T03:43:50;3.97;;;1.48;;
61252;SDS011;47127;47.516;8.596;2024-01-06T03:46:16;2.10;;;1.20;;
61252;SDS011;47127;47.516;8.596;2024-01-06T03:48:41;3.70;;;1.65;;
61252;SDS011;47127;47.516;8.596;2024-01-06T03:51:09;3.22;;;1.40;;
61252;SDS011;47127;47.516;8.596;2024-01-06T03:53:35;2.40;;;1.42;;
61252;SDS011;47127;47.516;8.596;2024-01-06T03:56:01;4.38;;;1.60;;
61252;SDS011;47127;47.516;8.596;2024-01-06T03:58:28;4.95;;;1.50;;
61252;SDS011;47127;47.516;8.596;2024-01-06T04:00:54;3.25;;;1.30;;
61252;SDS011;47127;47.516;8.596;2024-01-06T04:03:19;6.88;;;1.38;;
61252;SDS011;47127;47.516;8.596;2024-01-06T04:05:46;3.20;;;1.30;;
61252;SDS011;47127;47.516;8.596;2024-01-06T04:08:11;5.38;;;1.38;;
61252;SDS011;47127;47.516;8.596;2024-01-06T04:10:37;3.47;;;1.70;;
61252;SDS011;47127;47.516;8.596;2024-01-06T04:13:03;4.32;;;1.60;;
61252;SDS011;47127;47.516;8.596;2024-01-06T04:15:29;3.35;;;1.48;;
61252;SDS011;47127;47.516;8.596;2024-01-06T04:17:54;2.75;;;1.13;;
61252;SDS011;47127;47.516;8.596;2024-01-06T04:20:20;4.43;;;1.35;;
61252;SDS011;47127;47.516;8.596;2024-01-06T04:22:46;4.18;;;1.20;;
61252;SDS011;47127;47.516;8.596;2024-01-06T04:25:11;3.95;;;1.20;;
61252;SDS011;47127;47.516;8.596;2024-01-06T04:27:37;3.80;;;1.17;;
61252;SDS011;47127;47.516;8.596;2024-01-06T04:30:03;3.85;;;1.40;;
61252;SDS011;47127;47.516;8.596;2024-01-06T04:32:28;3.55;;;1.25;;
61252;SDS011;47127;47.516;8.596;2024-01-06T04:34:54;3.45;;;0.95;;
61252;SDS011;47127;47.516;8.596;2024-01-06T04:37:21;3.10;;;0.85;;
61252;SDS011;47127;47.516;8.596;2024-01-06T04:39:47;4.10;;;1.27;;
61252;SDS011;47127;47.516;8.596;2024-01-06T04:42:12;3.42;;;1.15;;
61252;SDS011;47127;47.516;8.596;2024-01-06T04:44:38;4.65;;;1.58;;
61252;SDS011;47127;47.516;8.596;2024-01-06T04:47:03;3.15;;;1.00;;
61252;SDS011;47127;47.516;8.596;2024-01-06T04:49:29;2.08;;;0.98;;
61252;SDS011;47127;47.516;8.596;2024-01-06T04:51:55;3.38;;;0.57;;
61252;SDS011;47127;47.516;8.596;2024-01-06T04:54:21;3.67;;;0.90;;
61252;SDS011;47127;47.516;8.596;2024-01-06T04:56:46;2.97;;;0.90;;
61252;SDS011;47127;47.516;8.596;2024-01-06T04:59:12;4.13;;;0.80;;
61252;SDS011;47127;47.516;8.596;2024-01-06T05:01:38;1.27;;;0.55;;
61252;SDS011;47127;47.516;8.596;2024-01-06T05:04:04;3.05;;;0.70;;
61252;SDS011;47127;47.516;8.596;2024-01-06T05:06:29;5.00;;;0.68;;
61252;SDS011;47127;47.516;8.596;2024-01-06T05:08:55;2.08;;;0.80;;
61252;SDS011;47127;47.516;8.596;2024-01-06T05:11:21;3.17;;;0.70;;
61252;SDS011;47127;47.516;8.596;2024-01-06T05:13:46;3.35;;;0.95;;
61252;SDS011;47127;47.516;8.596;2024-01-06T05:16:12;2.15;;;0.77;;
61252;SDS011;47127;47.516;8.596;2024-01-06T05:18:37;2.03;;;0.50;;
61252;SDS011;47127;47.516;8.596;2024-01-06T05:21:03;3.65;;;0.80;;
61252;SDS011;47127;47.516;8.596;2024-01-06T05:23:29;2.15;;;0.57;;
61252;SDS011;47127;47.516;8.596;2024-01-06T05:25:54;4.97;;;1.08;;
61252;SDS011;47127;47.516;8.596;2024-01-06T05:28:20;3.30;;;0.88;;
61252;SDS011;47127;47.516;8.596;2024-01-06T05:30:45;1.77;;;0.50;;
61252;SDS011;47127;47.516;8.596;2024-01-06T05:33:11;1.88;;;0.85;;
61252;SDS011;47127;47.516;8.596;2024-01-06T05:35:40;5.53;;;0.82;;
61252;SDS011;47127;47.516;8.596;2024-01-06T05:38:06;3.03;;;0.90;;
61252;SDS011;47127;47.516;8.596;2024-01-06T05:40:32;3.08;;;0.75;;
61252;SDS011;47127;47.516;8.596;2024-01-06T05:42:57;3.50;;;0.95;;
61252;SDS011;47127;47.516;8.596;2024-01-06T05:45:23;2.13;;;0.77;;
61252;SDS011;47127;47.516;8.596;2024-01-06T05:47:49;1.40;;;0.70;;
61252;SDS011;47127;47.516;8.596;2024-01-06T05:50:15;2.08;;;0.70;;
61252;SDS011;47127;47.516;8.596;2024-01-06T05:52:41;4.25;;;0.70;;
61252;SDS011;47127;47.516;8.596;2024-01-06T05:55:08;1.92;;;0.65;;
61252;SDS011;47127;47.516;8.596;2024-01-06T05:57:34;1.60;;;0.65;;
61252;SDS011;47127;47.516;8.596;2024-01-06T05:59:59;1.63;;;0.68;;
61252;SDS011;47127;47.516;8.596;2024-01-06T06:02:25;4.07;;;0.80;;
61252;SDS011;47127;47.516;8.596;2024-01-06T06:04:51;3.22;;;0.98;;
61252;SDS011;47127;47.516;8.596;2024-01-06T06:07:17;5.63;;;0.90;;
61252;SDS011;47127;47.516;8.596;2024-01-06T06:09:43;1.13;;;0.57;;
61252;SDS011;47127;47.516;8.596;2024-01-06T06:12:13;3.03;;;0.70;;
61252;SDS011;47127;47.516;8.596;2024-01-06T06:14:39;4.85;;;0.70;;
61252;SDS011;47127;47.516;8.596;2024-01-06T06:17:04;2.55;;;0.70;;
61252;SDS011;47127;47.516;8.596;2024-01-06T06:19:31;1.90;;;0.80;;
61252;SDS011;47127;47.516;8.596;2024-01-06T06:21:56;3.85;;;0.82;;
61252;SDS011;47127;47.516;8.596;2024-01-06T06:24:22;2.80;;;0.88;;
61252;SDS011;47127;47.516;8.596;2024-01-06T06:26:47;6.53;;;1.13;;
61252;SDS011;47127;47.516;8.596;2024-01-06T06:29:13;2.53;;;0.88;;
61252;SDS011;47127;47.516;8.596;2024-01-06T06:31:39;5.13;;;0.75;;
61252;SDS011;47127;47.516;8.596;2024-01-06T06:34:04;2.15;;;0.60;;
61252;SDS011;47127;47.516;8.596;2024-01-06T06:36:30;2.00;;;0.70;;
61252;SDS011;47127;47.516;8.596;2024-01-06T06:38:55;2.17;;;0.60;;
61252;SDS011;47127;47.516;8.596;2024-01-06T06:41:23;1.95;;;0.60;;
61252;SDS011;47127;47.516;8.596;2024-01-06T06:43:50;2.67;;;0.80;;
61252;SDS011;47127;47.516;8.596;2024-01-06T06:46:15;3.47;;;0.70;;
61252;SDS011;47127;47.516;8.596;2024-01-06T06:48:41;5.57;;;0.90;;
61252;SDS011;47127;47.516;8.596;2024-01-06T06:51:07;4.53;;;1.13;;
61252;SDS011;47127;47.516;8.596;2024-01-06T06:53:32;2.85;;;0.65;;
61252;SDS011;47127;47.516;8.596;2024-01-06T06:55:58;2.45;;;0.75;;
61252;SDS011;47127;47.516;8.596;2024-01-06T06:58:23;2.47;;;0.80;;
61252;SDS011;47127;47.516;8.596;2024-01-06T07:00:49;2.88;;;0.80;;
61252;SDS011;47127;47.516;8.596;2024-01-06T07:03:16;4.10;;;0.90;;
61252;SDS011;47127;47.516;8.596;2024-01-06T07:05:42;2.58;;;1.00;;
61252;SDS011;47127;47.516;8.596;2024-01-06T07:08:07;3.30;;;0.90;;
61252;SDS011;47127;47.516;8.596;2024-01-06T07:10:33;2.58;;;1.00;;
61252;SDS011;47127;47.516;8.596;2024-01-06T07:12:58;4.22;;;1.13;;
61252;SDS011;47127;47.516;8.596;2024-01-06T07:15:27;6.00;;;1.42;;
61252;SDS011;47127;47.516;8.596;2024-01-06T07:17:52;2.53;;;0.90;;
61252;SDS011;47127;47.516;8.596;2024-01-06T07:20:18;4.43;;;1.23;;
61252;SDS011;47127;47.516;8.596;2024-01-06T07:22:44;4.63;;;1.00;;
61252;SDS011;47127;47.516;8.596;2024-01-06T07:25:10;2.30;;;1.00;;
61252;SDS011;47127;47.516;8.596;2024-01-06T07:27:35;4.22;;;0.80;;
61252;SDS011;47127;47.516;8.596;2024-01-06T07:30:01;3.28;;;0.88;;
61252;SDS011;47127;47.516;8.596;2024-01-06T07:32:27;3.03;;;0.93;;
61252;SDS011;47127;47.516;8.596;2024-01-06T07:34:52;5.28;;;0.90;;
61252;SDS011;47127;47.516;8.596;2024-01-06T07:37:18;1.40;;;0.80;;
61252;SDS011;47127;47.516;8.596;2024-01-06T07:39:43;3.28;;;0.80;;
61252;SDS011;47127;47.516;8.596;2024-01-06T07:42:10;2.65;;;1.20;;
61252;SDS011;47127;47.516;8.596;2024-01-06T07:44:36;3.58;;;1.10;;
61252;SDS011;47127;47.516;8.596;2024-01-06T07:47:02;3.25;;;1.00;;
61252;SDS011;47127;47.516;8.596;2024-01-06T07:49:30;6.38;;;1.58;;
61252;SDS011;47127;47.516;8.596;2024-01-06T07:51:55;7.05;;;2.00;;
61252;SDS011;47127;47.516;8.596;2024-01-06T07:54:21;6.80;;;2.10;;
61252;SDS011;47127;47.516;8.596;2024-01-06T07:56:47;2.70;;;1.30;;
61252;SDS011;47127;47.516;8.596;2024-01-06T07:59:12;5.20;;;1.83;;
61252;SDS011;47127;47.516;8.596;2024-01-06T08:01:38;2.03;;;1.02;;
61252;SDS011;47127;47.516;8.596;2024-01-06T08:04:04;5.15;;;1.23;;
61252;SDS011;47127;47.516;8.596;2024-01-06T08:06:30;2.38;;;1.10;;
61252;SDS011;47127;47.516;8.596;2024-01-06T08:08:55;2.70;;;1.25;;
61252;SDS011;47127;47.516;8.596;2024-01-06T08:11:21;3.67;;;1.10;;
61252;SDS011;47127;47.516;8.596;2024-01-06T08:13:46;3.42;;;0.82;;
61252;SDS011;47127;47.516;8.596;2024-01-06T08:16:12;2.63;;;1.17;;
61252;SDS011;47127;47.516;8.596;2024-01-06T08:18:38;3.38;;;1.45;;
61252;SDS011;47127;47.516;8.596;2024-01-06T08:21:03;3.33;;;1.60;;
61252;SDS011;47127;47.516;8.596;2024-01-06T08:23:29;3.97;;;1.65;;
61252;SDS011;47127;47.516;8.596;2024-01-06T08:25:55;2.63;;;1.65;;
61252;SDS011;47127;47.516;8.596;2024-01-06T08:28:21;5.95;;;1.80;;
61252;SDS011;47127;47.516;8.596;2024-01-06T08:30:48;5.07;;;2.13;;
61252;SDS011;47127;47.516;8.596;2024-01-06T08:33:14;4.80;;;2.10;;
61252;SDS011;47127;47.516;8.596;2024-01-06T08:35:39;6.45;;;2.10;;
61252;SDS011;47127;47.516;8.596;2024-01-06T08:38:08;5.40;;;2.10;;
61252;SDS011;47127;47.516;8.596;2024-01-06T08:40:34;5.93;;;2.30;;
61252;SDS011;47127;47.516;8.596;2024-01-06T08:43:00;3.85;;;2.20;;
61252;SDS011;47127;47.516;8.596;2024-01-06T08:45:26;4.80;;;2.00;;
61252;SDS011;47127;47.516;8.596;2024-01-06T08:47:51;3.42;;;1.85;;
61252;SDS011;47127;47.516;8.596;2024-01-06T08:50:17;4.78;;;1.88;;
61252;SDS011;47127;47.516;8.596;2024-01-06T08:52:43;5.13;;;1.67;;
61252;SDS011;47127;47.516;8.596;2024-01-06T08:55:08;3.92;;;1.80;;
61252;SDS011;47127;47.516;8.596;2024-01-06T08:57:34;4.72;;;1.77;;
61252;SDS011;47127;47.516;8.596;2024-01-06T08:59:59;3.03;;;1.60;;
61252;SDS011;47127;47.516;8.596;2024-01-06T09:02:25;4.00;;;1.73;;
61252;SDS011;47127;47.516;8.596;2024-01-06T09:04:50;2.58;;;1.25;;
61252;SDS011;47127;47.516;8.596;2024-01-06T09:07:16;3.75;;;1.50;;
61252;SDS011;47127;47.516;8.596;2024-01-06T09:09:42;4.78;;;1.60;;
61252;SDS011;47127;47.516;8.596;2024-01-06T09:12:08;3.10;;;1.40;;
61252;SDS011;47127;47.516;8.596;2024-01-06T09:14:34;5.88;;;1.50;;
61252;SDS011;47127;47.516;8.596;2024-01-06T09:17:00;4.13;;;1.50;;
61252;SDS011;47127;47.516;8.596;2024-01-06T09:19:25;3.42;;;1.75;;
61252;SDS011;47127;47.516;8.596;2024-01-06T09:21:53;3.45;;;1.33;;
61252;SDS011;47127;47.516;8.596;2024-01-06T09:24:19;4.57;;;1.60;;
61252;SDS011;47127;47.516;8.596;2024-01-06T09:26:45;3.17;;;1.38;;
61252;SDS011;47127;47.516;8.596;2024-01-06T09:29:11;1.95;;;1.20;;
61252;SDS011;47127;47.516;8.596;2024-01-06T09:31:37;3.38;;;1.40;;
61252;SDS011;47127;47.516;8.596;2024-01-06T09:34:04;1.73;;;1.20;;
61252;SDS011;47127;47.516;8.596;2024-01-06T09:36:31;3.33;;;1.20;;
61252;SDS011;47127;47.516;8.596;2024-01-06T09:38:57;3.10;;;1.30;;
61252;SDS011;47127;47.516;8.596;2024-01-06T09:41:22;3.22;;;1.00;;
61252;SDS011;47127;47.516;8.596;2024-01-06T09:43:49;4.07;;;1.20;;
61252;SDS011;47127;47.516;8.596;2024-01-06T09:46:17;3.85;;;1.50;;
61252;SDS011;47127;47.516;8.596;2024-01-06T09:48:46;3.17;;;1.20;;
61252;SDS011;47127;47.516;8.596;2024-01-06T09:51:16;4.88;;;1.73;;
61252;SDS011;47127;47.516;8.596;2024-01-06T09:53:48;5.45;;;1.40;;
61252;SDS011;47127;47.516;8.596;2024-01-06T09:56:19;4.22;;;1.67;;
61252;SDS011;47127;47.516;8.596;2024-01-06T09:58:45;3.70;;;1.50;;
61252;SDS011;47127;47.516;8.596;2024-01-06T10:01:11;2.92;;;1.20;;
61252;SDS011;47127;47.516;8.596;2024-01-06T10:03:37;2.85;;;1.30;;
61252;SDS011;47127;47.516;8.596;2024-01-06T10:06:03;4.80;;;1.50;;
61252;SDS011;47127;47.516;8.596;2024-01-06T10:08:32;2.33;;;1.17;;
61252;SDS011;47127;47.516;8.596;2024-01-06T10:10:59;3.88;;;1.30;;
61252;SDS011;47127;47.516;8.596;2024-01-06T10:13:25;2.42;;;1.30;;
61252;SDS011;47127;47.516;8.596;2024-01-06T10:15:51;3.22;;;1.10;;
61252;SDS011;47127;47.516;8.596;2024-01-06T10:18:16;3.10;;;1.23;;
61252;SDS011;47127;47.516;8.596;2024-01-06T10:20:46;3.40;;;1.38;;
61252;SDS011;47127;47.516;8.596;2024-01-06T10:23:12;3.10;;;1.02;;
61252;SDS011;47127;47.516;8.596;2024-01-06T10:25:38;1.58;;;0.77;;
61252;SDS011;47127;47.516;8.596;2024-01-06T10:28:04;1.38;;;0.70;;
61252;SDS011;47127;47.516;8.596;2024-01-06T10:30:30;2.58;;;1.05;;
61252;SDS011;47127;47.516;8.596;2024-01-06T10:32:55;2.38;;;1.10;;
61252;SDS011;47127;47.516;8.596;2024-01-06T10:35:21;2.10;;;1.00;;
61252;SDS011;47127;47.516;8.596;2024-01-06T10:37:47;2.33;;;1.17;;
61252;SDS011;47127;47.516;8.596;2024-01-06T10:40:15;2.85;;;1.38;;
61252;SDS011;47127;47.516;8.596;2024-01-06T10:42:41;4.43;;;1.20;;
61252;SDS011;47127;47.516;8.596;2024-01-06T10:45:08;3.10;;;1.25;;
61252;SDS011;47127;47.516;8.596;2024-01-06T10:47:35;3.45;;;1.40;;
61252;SDS011;47127;47.516;8.596;2024-01-06T10:50:02;1.75;;;1.20;;
61252;SDS011;47127;47.516;8.596;2024-01-06T10:52:29;6.47;;;1.52;;
61252;SDS011;47127;47.516;8.596;2024-01-06T10:54:55;3.63;;;1.27;;
61252;SDS011;47127;47.516;8.596;2024-01-06T10:57:21;1.63;;;1.00;;
61252;SDS011;47127;47.516;8.596;2024-01-06T10:59:51;4.18;;;1.60;;
61252;SDS011;47127;47.516;8.596;2024-01-06T11:02:17;2.75;;;1.30;;
61252;SDS011;47127;47.516;8.596;2024-01-06T11:04:44;3.58;;;1.30;;
61252;SDS011;47127;47.516;8.596;2024-01-06T11:07:10;3.83;;;1.60;;
61252;SDS011;47127;47.516;8.596;2024-01-06T11:09:39;3.50;;;1.70;;
61252;SDS011;47127;47.516;8.596;2024-01-06T11:12:12;4.15;;;1.75;;
61252;SDS011;47127;47.516;8.596;2024-01-06T11:14:38;3.33;;;1.60;;
61252;SDS011;47127;47.516;8.596;2024-01-06T11:17:03;2.88;;;1.65;;
61252;SDS011;47127;47.516;8.596;2024-01-06T11:22:17;5.53;;;2.30;;
61252;SDS011;47127;47.516;8.596;2024-01-06T11:24:54;5.15;;;2.28;;
61252;SDS011;47127;47.516;8.596;2024-01-06T11:27:22;6.65;;;2.38;;
61252;SDS011;47127;47.516;8.596;2024-01-06T11:29:53;5.40;;;2.50;;
61252;SDS011;47127;47.516;8.596;2024-01-06T11:34:53;3.90;;;2.17;;
61252;SDS011;47127;47.516;8.596;2024-01-06T11:40:08;2.83;;;1.17;;
61252;SDS011;47127;47.516;8.596;2024-01-06T11:42:34;3.55;;;1.60;;
61252;SDS011;47127;47.516;8.596;2024-01-06T11:45:04;2.63;;;0.98;;
61252;SDS011;47127;47.516;8.596;2024-01-06T11:47:33;2.90;;;1.38;;
61252;SDS011;47127;47.516;8.596;2024-01-06T11:50:03;4.63;;;1.77;;
61252;SDS011;47127;47.516;8.596;2024-01-06T11:52:32;1.92;;;1.23;;
61252;SDS011;47127;47.516;8.596;2024-01-06T11:54:58;2.35;;;1.50;;
61252;SDS011;47127;47.516;8.596;2024-01-06T11:57:28;3.53;;;1.58;;
61252;SDS011;47127;47.516;8.596;2024-01-06T11:59:55;3.50;;;1.55;;
61252;SDS011;47127;47.516;8.596;2024-01-06T12:02:20;4.00;;;1.85;;
61252;SDS011;47127;47.516;8.596;2024-01-06T12:04:53;3.58;;;1.40;;
61252;SDS011;47127;47.516;8.596;2024-01-06T12:07:19;3.85;;;1.95;;
61252;SDS011;47127;47.516;8.596;2024-01-06T12:09:47;4.43;;;1.80;;
61252;SDS011;47127;47.516;8.596;2024-01-06T12:12:16;4.47;;;1.98;;
61252;SDS011;47127;47.516;8.596;2024-01-06T12:14:42;7.32;;;2.72;;
61252;SDS011;47127;47.516;8.596;2024-01-06T12:17:09;4.78;;;2.38;;
61252;SDS011;47127;47.516;8.596;2024-01-06T12:19:35;4.07;;;2.20;;
61252;SDS011;47127;47.516;8.596;2024-01-06T12:22:01;4.75;;;2.00;;
61252;SDS011;47127;47.516;8.596;2024-01-06T12:24:28;4.45;;;2.17;;
61252;SDS011;47127;47.516;8.596;2024-01-06T12:26:55;4.40;;;2.25;;
61252;SDS011;47127;47.516;8.596;2024-01-06T12:29:22;3.88;;;1.80;;
61252;SDS011;47127;47.516;8.596;2024-01-06T12:31:48;4.43;;;1.80;;
61252;SDS011;47127;47.516;8.596;2024-01-06T12:34:13;5.10;;;2.38;;
61252;SDS011;47127;47.516;8.596;2024-01-06T12:36:40;4.68;;;2.10;;
61252;SDS011;47127;47.516;8.596;2024-01-06T12:39:11;4.75;;;2.70;;
61252;SDS011;47127;47.516;8.596;2024-01-06T12:41:38;4.45;;;2.10;;
61252;SDS011;47127;47.516;8.596;2024-01-06T12:44:07;4.22;;;2.03;;
61252;SDS011;47127;47.516;8.596;2024-01-06T12:46:33;3.10;;;2.05;;
61252;SDS011;47127;47.516;8.596;2024-01-06T12:48:59;5.30;;;2.00;;
61252;SDS011;47127;47.516;8.596;2024-01-06T12:51:24;3.45;;;2.08;;
61252;SDS011;47127;47.516;8.596;2024-01-06T12:53:50;6.03;;;2.45;;
61252;SDS011;47127;47.516;8.596;2024-01-06T12:56:16;4.07;;;2.00;;
61252;SDS011;47127;47.516;8.596;2024-01-06T12:58:42;5.22;;;1.85;;
61252;SDS011;47127;47.516;8.596;2024-01-06T13:01:08;3.33;;;1.83;;
61252;SDS011;47127;47.516;8.596;2024-01-06T13:03:34;3.80;;;1.75;;
61252;SDS011;47127;47.516;8.596;2024-01-06T13:06:00;5.57;;;2.08;;
61252;SDS011;47127;47.516;8.596;2024-01-06T13:08:26;5.18;;;2.20;;
61252;SDS011;47127;47.516;8.596;2024-01-06T13:10:53;3.42;;;2.10;;
61252;SDS011;47127;47.516;8.596;2024-01-06T13:13:22;3.75;;;2.05;;
61252;SDS011;47127;47.516;8.596;2024-01-06T13:15:47;4.38;;;2.10;;
61252;SDS011;47127;47.516;8.596;2024-01-06T13:18:13;4.45;;;2.22;;
61252;SDS011;47127;47.516;8.596;2024-01-06T13:20:39;3.58;;;2.00;;
61252;SDS011;47127;47.516;8.596;2024-01-06T13:23:08;3.88;;;1.90;;
61252;SDS011;47127;47.516;8.596;2024-01-06T13:25:36;5.15;;;2.20;;
61252;SDS011;47127;47.516;8.596;2024-01-06T13:28:03;3.97;;;2.05;;
61252;SDS011;47127;47.516;8.596;2024-01-06T13:30:29;4.90;;;2.40;;
61252;SDS011;47127;47.516;8.596;2024-01-06T13:32:55;6.18;;;3.50;;
61252;SDS011;47127;47.516;8.596;2024-01-06T13:35:20;5.97;;;2.70;;
61252;SDS011;47127;47.516;8.596;2024-01-06T13:37:49;8.48;;;3.22;;
61252;SDS011;47127;47.516;8.596;2024-01-06T13:40:18;6.32;;;3.00;;
61252;SDS011;47127;47.516;8.596;2024-01-06T13:42:47;7.38;;;3.42;;
61252;SDS011;47127;47.516;8.596;2024-01-06T13:45:14;6.00;;;3.33;;
61252;SDS011;47127;47.516;8.596;2024-01-06T13:47:40;8.80;;;3.00;;
61252;SDS011;47127;47.516;8.596;2024-01-06T13:50:09;5.38;;;2.58;;
61252;SDS011;47127;47.516;8.596;2024-01-06T13:52:40;5.43;;;2.95;;
61252;SDS011;47127;47.516;8.596;2024-01-06T13:55:06;6.70;;;3.38;;
61252;SDS011;47127;47.516;8.596;2024-01-06T13:57:33;6.55;;;2.88;;
61252;SDS011;47127;47.516;8.596;2024-01-06T13:59:59;4.55;;;3.03;;
61252;SDS011;47127;47.516;8.596;2024-01-06T14:02:24;4.82;;;2.90;;
61252;SDS011;47127;47.516;8.596;2024-01-06T14:04:50;6.03;;;2.60;;
61252;SDS011;47127;47.516;8.596;2024-01-06T14:07:16;5.75;;;3.17;;
61252;SDS011;47127;47.516;8.596;2024-01-06T14:09:47;5.40;;;2.83;;
61252;SDS011;47127;47.516;8.596;2024-01-06T14:12:13;10.30;;;4.20;;
61252;SDS011;47127;47.516;8.596;2024-01-06T14:14:38;4.80;;;2.78;;
61252;SDS011;47127;47.516;8.596;2024-01-06T14:17:04;8.90;;;3.50;;
61252;SDS011;47127;47.516;8.596;2024-01-06T14:19:30;6.88;;;3.00;;
61252;SDS011;47127;47.516;8.596;2024-01-06T14:21:55;7.25;;;3.25;;
61252;SDS011;47127;47.516;8.596;2024-01-06T14:24:21;6.50;;;3.40;;
61252;SDS011;47127;47.516;8.596;2024-01-06T14:26:50;7.28;;;3.35;;
61252;SDS011;47127;47.516;8.596;2024-01-06T14:29:16;7.63;;;3.80;;
61252;SDS011;47127;47.516;8.596;2024-01-06T14:31:42;6.97;;;3.55;;
61252;SDS011;47127;47.516;8.596;2024-01-06T14:34:08;8.27;;;3.50;;
61252;SDS011;47127;47.516;8.596;2024-01-06T14:36:35;7.28;;;3.75;;
61252;SDS011;47127;47.516;8.596;2024-01-06T14:39:00;8.88;;;4.57;;
61252;SDS011;47127;47.516;8.596;2024-01-06T14:41:26;9.38;;;4.38;;
61252;SDS011;47127;47.516;8.596;2024-01-06T14:43:52;10.65;;;4.40;;
61252;SDS011;47127;47.516;8.596;2024-01-06T14:46:18;6.32;;;3.70;;